sensor_id;sensor_type;location;lat;lon;timestamp;P1;durP1;ratioP1;P2;durP2;ratioP2
6197;SDS011;3132;42.622;23.328;2022-12-28T00:00:46;13.73;;;12.77;;
6197;SDS011;3132;42.622;23.328;2022-12-28T00:03:11;14.37;;;13.27;;
6197;SDS011;3132;42.622;23.328;2022-12-28T00:05:37;13.20;;;12.30;;
6197;SDS011;3132;42.622;23.328;2022-12-28T00:08:02;12.90;;;12.10;;
6197;SDS011;3132;42.622;23.328;2022-12-28T00:10:28;13.93;;;12.90;;
6197;SDS011;3132;42.622;23.328;2022-12-28T00:12:54;14.20;;;13.10;;
6197;SDS011;3132;42.622;23.328;2022-12-28T00:15:20;13.20;;;12.27;;
6197;SDS011;3132;42.622;23.328;2022-12-28T00:17:45;13.27;;;12.10;;
6197;SDS011;3132;42.622;23.328;2022-12-28T00:20:11;14.10;;;12.90;;
6197;SDS011;3132;42.622;23.328;2022-12-28T00:22:36;13.53;;;12.53;;
6197;SDS011;3132;42.622;23.328;2022-12-28T00:25:02;13.07;;;12.17;;
6197;SDS011;3132;42.622;23.328;2022-12-28T00:27:27;12.43;;;11.63;;
6197;SDS011;3132;42.622;23.328;2022-12-28T00:29:53;13.17;;;12.17;;
6197;SDS011;3132;42.622;23.328;2022-12-28T00:32:18;13.10;;;12.10;;
6197;SDS011;3132;42.622;23.328;2022-12-28T00:34:44;12.87;;;12.13;;
6197;SDS011;3132;42.622;23.328;2022-12-28T00:37:09;13.30;;;12.40;;
6197;SDS011;3132;42.622;23.328;2022-12-28T00:39:34;13.03;;;12.03;;
6197;SDS011;3132;42.622;23.328;2022-12-28T00:42:00;12.73;;;11.93;;
6197;SDS011;3132;42.622;23.328;2022-12-28T00:44:25;13.60;;;12.43;;
6197;SDS011;3132;42.622;23.328;2022-12-28T00:46:50;12.73;;;11.93;;
6197;SDS011;3132;42.622;23.328;2022-12-28T00:49:16;12.93;;;11.93;;
6197;SDS011;3132;42.622;23.328;2022-12-28T00:51:41;13.93;;;12.90;;
6197;SDS011;3132;42.622;23.328;2022-12-28T00:54:06;13.93;;;12.90;;
6197;SDS011;3132;42.622;23.328;2022-12-28T00:56:32;14.27;;;13.27;;
6197;SDS011;3132;42.622;23.328;2022-12-28T00:58:58;12.90;;;11.90;;
6197;SDS011;3132;42.622;23.328;2022-12-28T01:01:24;13.97;;;12.77;;
6197;SDS011;3132;42.622;23.328;2022-12-28T01:03:51;13.27;;;12.27;;
6197;SDS011;3132;42.622;23.328;2022-12-28T01:06:19;14.90;;;13.73;;
6197;SDS011;3132;42.622;23.328;2022-12-28T01:08:44;13.53;;;12.63;;
6197;SDS011;3132;42.622;23.328;2022-12-28T01:11:15;13.47;;;12.43;;
6197;SDS011;3132;42.622;23.328;2022-12-28T01:13:43;14.93;;;13.53;;
6197;SDS011;3132;42.622;23.328;2022-12-28T01:16:19;12.83;;;11.73;;
6197;SDS011;3132;42.622;23.328;2022-12-28T01:18:53;12.77;;;11.77;;
6197;SDS011;3132;42.622;23.328;2022-12-28T01:21:21;14.17;;;13.10;;
6197;SDS011;3132;42.622;23.328;2022-12-28T01:23:48;14.20;;;12.93;;
6197;SDS011;3132;42.622;23.328;2022-12-28T01:26:16;14.80;;;13.60;;
6197;SDS011;3132;42.622;23.328;2022-12-28T01:28:42;14.60;;;13.20;;
6197;SDS011;3132;42.622;23.328;2022-12-28T01:31:08;14.73;;;13.63;;
6197;SDS011;3132;42.622;23.328;2022-12-28T01:33:36;13.53;;;12.53;;
6197;SDS011;3132;42.622;23.328;2022-12-28T01:36:12;14.73;;;13.53;;
6197;SDS011;3132;42.622;23.328;2022-12-28T01:38:39;13.43;;;12.43;;
6197;SDS011;3132;42.622;23.328;2022-12-28T01:41:08;13.17;;;12.27;;
6197;SDS011;3132;42.622;23.328;2022-12-28T01:43:47;14.43;;;13.40;;
6197;SDS011;3132;42.622;23.328;2022-12-28T01:49:01;13.80;;;12.80;;
6197;SDS011;3132;42.622;23.328;2022-12-28T01:51:27;13.23;;;12.33;;
6197;SDS011;3132;42.622;23.328;2022-12-28T01:53:55;13.00;;;12.03;;
6197;SDS011;3132;42.622;23.328;2022-12-28T01:56:24;14.20;;;13.20;;
6197;SDS011;3132;42.622;23.328;2022-12-28T01:58:51;14.07;;;12.97;;
6197;SDS011;3132;42.622;23.328;2022-12-28T02:01:18;14.40;;;13.23;;
6197;SDS011;3132;42.622;23.328;2022-12-28T02:03:43;14.27;;;13.07;;
6197;SDS011;3132;42.622;23.328;2022-12-28T02:06:10;14.40;;;13.40;;
6197;SDS011;3132;42.622;23.328;2022-12-28T02:11:20;14.47;;;13.20;;
6197;SDS011;3132;42.622;23.328;2022-12-28T02:13:47;14.83;;;13.70;;
6197;SDS011;3132;42.622;23.328;2022-12-28T02:16:15;13.60;;;12.63;;
6197;SDS011;3132;42.622;23.328;2022-12-28T02:18:41;14.47;;;13.10;;
6197;SDS011;3132;42.622;23.328;2022-12-28T02:24:34;12.23;;;11.23;;
6197;SDS011;3132;42.622;23.328;2022-12-28T02:35:12;14.67;;;13.30;;
6197;SDS011;3132;42.622;23.328;2022-12-28T02:37:46;14.07;;;13.07;;
6197;SDS011;3132;42.622;23.328;2022-12-28T02:40:19;15.03;;;13.60;;
6197;SDS011;3132;42.622;23.328;2022-12-28T02:42:49;14.13;;;12.83;;
6197;SDS011;3132;42.622;23.328;2022-12-28T02:45:35;14.40;;;13.30;;
6197;SDS011;3132;42.622;23.328;2022-12-28T02:48:25;13.13;;;12.13;;
6197;SDS011;3132;42.622;23.328;2022-12-28T02:56:39;14.47;;;13.37;;
6197;SDS011;3132;42.622;23.328;2022-12-28T03:02:05;13.90;;;12.87;;
6197;SDS011;3132;42.622;23.328;2022-12-28T03:12:51;13.73;;;12.60;;
6197;SDS011;3132;42.622;23.328;2022-12-28T03:15:29;15.07;;;13.87;;
6197;SDS011;3132;42.622;23.328;2022-12-28T03:18:09;13.83;;;12.67;;
6197;SDS011;3132;42.622;23.328;2022-12-28T03:20:58;14.83;;;13.43;;
6197;SDS011;3132;42.622;23.328;2022-12-28T03:23:46;12.97;;;11.93;;
6197;SDS011;3132;42.622;23.328;2022-12-28T03:26:32;13.40;;;12.50;;
6197;SDS011;3132;42.622;23.328;2022-12-28T03:29:19;13.80;;;12.80;;
6197;SDS011;3132;42.622;23.328;2022-12-28T03:32:06;14.00;;;12.83;;
6197;SDS011;3132;42.622;23.328;2022-12-28T03:34:32;14.63;;;13.43;;
6197;SDS011;3132;42.622;23.328;2022-12-28T03:37:00;14.17;;;12.97;;
6197;SDS011;3132;42.622;23.328;2022-12-28T03:39:38;14.17;;;13.17;;
6197;SDS011;3132;42.622;23.328;2022-12-28T03:42:15;14.73;;;13.63;;
6197;SDS011;3132;42.622;23.328;2022-12-28T03:45:26;15.03;;;13.80;;
6197;SDS011;3132;42.622;23.328;2022-12-28T03:47:59;15.03;;;13.73;;
6197;SDS011;3132;42.622;23.328;2022-12-28T03:50:27;15.10;;;13.90;;
6197;SDS011;3132;42.622;23.328;2022-12-28T03:52:54;15.87;;;14.57;;
6197;SDS011;3132;42.622;23.328;2022-12-28T03:55:21;16.07;;;14.57;;
6197;SDS011;3132;42.622;23.328;2022-12-28T03:57:48;14.07;;;13.07;;
6197;SDS011;3132;42.622;23.328;2022-12-28T04:00:13;15.50;;;14.30;;
6197;SDS011;3132;42.622;23.328;2022-12-28T04:02:39;14.57;;;13.40;;
6197;SDS011;3132;42.622;23.328;2022-12-28T04:05:04;14.20;;;13.07;;
6197;SDS011;3132;42.622;23.328;2022-12-28T04:07:30;15.27;;;14.07;;
6197;SDS011;3132;42.622;23.328;2022-12-28T04:09:55;14.53;;;13.53;;
6197;SDS011;3132;42.622;23.328;2022-12-28T04:12:21;15.03;;;13.83;;
6197;SDS011;3132;42.622;23.328;2022-12-28T04:14:46;16.17;;;14.80;;
6197;SDS011;3132;42.622;23.328;2022-12-28T04:17:12;14.63;;;13.53;;
6197;SDS011;3132;42.622;23.328;2022-12-28T04:19:37;14.73;;;13.43;;
6197;SDS011;3132;42.622;23.328;2022-12-28T04:22:02;16.33;;;14.73;;
6197;SDS011;3132;42.622;23.328;2022-12-28T04:24:28;16.00;;;14.57;;
6197;SDS011;3132;42.622;23.328;2022-12-28T04:26:53;16.10;;;14.80;;
6197;SDS011;3132;42.622;23.328;2022-12-28T04:29:19;17.53;;;15.80;;
6197;SDS011;3132;42.622;23.328;2022-12-28T04:31:44;16.40;;;14.90;;
6197;SDS011;3132;42.622;23.328;2022-12-28T04:34:10;14.20;;;13.10;;
6197;SDS011;3132;42.622;23.328;2022-12-28T04:36:35;14.43;;;13.37;;
6197;SDS011;3132;42.622;23.328;2022-12-28T04:39:02;14.27;;;13.07;;
6197;SDS011;3132;42.622;23.328;2022-12-28T04:41:27;14.63;;;13.17;;
6197;SDS011;3132;42.622;23.328;2022-12-28T04:43:53;13.63;;;12.50;;
6197;SDS011;3132;42.622;23.328;2022-12-28T04:46:19;14.97;;;13.80;;
6197;SDS011;3132;42.622;23.328;2022-12-28T04:48:44;14.60;;;13.27;;
6197;SDS011;3132;42.622;23.328;2022-12-28T04:51:31;13.70;;;12.63;;
6197;SDS011;3132;42.622;23.328;2022-12-28T04:53:56;14.53;;;13.40;;
6197;SDS011;3132;42.622;23.328;2022-12-28T04:56:23;14.13;;;13.03;;
6197;SDS011;3132;42.622;23.328;2022-12-28T04:58:56;13.93;;;12.93;;
6197;SDS011;3132;42.622;23.328;2022-12-28T05:01:23;13.90;;;12.83;;
6197;SDS011;3132;42.622;23.328;2022-12-28T05:03:50;13.83;;;12.73;;
6197;SDS011;3132;42.622;23.328;2022-12-28T05:06:17;13.60;;;12.70;;
6197;SDS011;3132;42.622;23.328;2022-12-28T05:08:44;12.27;;;11.37;;
6197;SDS011;3132;42.622;23.328;2022-12-28T05:11:11;13.90;;;12.73;;
6197;SDS011;3132;42.622;23.328;2022-12-28T05:13:38;13.07;;;12.27;;
6197;SDS011;3132;42.622;23.328;2022-12-28T05:16:05;13.10;;;12.20;;
6197;SDS011;3132;42.622;23.328;2022-12-28T05:18:33;12.77;;;11.87;;
6197;SDS011;3132;42.622;23.328;2022-12-28T05:21:03;12.90;;;12.10;;
6197;SDS011;3132;42.622;23.328;2022-12-28T05:23:35;12.73;;;11.83;;
6197;SDS011;3132;42.622;23.328;2022-12-28T05:26:02;12.77;;;11.87;;
6197;SDS011;3132;42.622;23.328;2022-12-28T05:28:28;12.20;;;11.30;;
6197;SDS011;3132;42.622;23.328;2022-12-28T05:30:57;13.03;;;12.20;;
6197;SDS011;3132;42.622;23.328;2022-12-28T05:33:29;12.90;;;12.00;;
6197;SDS011;3132;42.622;23.328;2022-12-28T05:36:02;12.50;;;11.63;;
6197;SDS011;3132;42.622;23.328;2022-12-28T05:38:28;12.30;;;11.43;;
6197;SDS011;3132;42.622;23.328;2022-12-28T05:40:54;12.40;;;11.50;;
6197;SDS011;3132;42.622;23.328;2022-12-28T05:43:19;13.00;;;12.00;;
6197;SDS011;3132;42.622;23.328;2022-12-28T05:45:44;12.97;;;12.17;;
6197;SDS011;3132;42.622;23.328;2022-12-28T05:48:10;12.40;;;11.60;;
6197;SDS011;3132;42.622;23.328;2022-12-28T05:50:35;12.13;;;11.13;;
6197;SDS011;3132;42.622;23.328;2022-12-28T05:53:01;13.67;;;12.57;;
6197;SDS011;3132;42.622;23.328;2022-12-28T05:55:26;13.50;;;12.60;;
6197;SDS011;3132;42.622;23.328;2022-12-28T05:57:53;12.90;;;11.90;;
6197;SDS011;3132;42.622;23.328;2022-12-28T06:00:19;13.80;;;12.80;;
6197;SDS011;3132;42.622;23.328;2022-12-28T06:02:45;12.97;;;12.00;;
6197;SDS011;3132;42.622;23.328;2022-12-28T06:05:10;13.23;;;12.33;;
6197;SDS011;3132;42.622;23.328;2022-12-28T06:07:36;12.63;;;11.63;;
6197;SDS011;3132;42.622;23.328;2022-12-28T06:10:01;12.20;;;11.43;;
6197;SDS011;3132;42.622;23.328;2022-12-28T06:12:26;12.13;;;11.33;;
6197;SDS011;3132;42.622;23.328;2022-12-28T06:14:52;13.23;;;12.20;;
6197;SDS011;3132;42.622;23.328;2022-12-28T06:17:17;13.83;;;12.97;;
6197;SDS011;3132;42.622;23.328;2022-12-28T06:19:43;12.57;;;11.50;;
6197;SDS011;3132;42.622;23.328;2022-12-28T06:22:08;12.70;;;11.77;;
6197;SDS011;3132;42.622;23.328;2022-12-28T06:24:33;13.77;;;12.47;;
6197;SDS011;3132;42.622;23.328;2022-12-28T06:26:59;11.80;;;11.10;;
6197;SDS011;3132;42.622;23.328;2022-12-28T06:29:24;14.53;;;13.23;;
6197;SDS011;3132;42.622;23.328;2022-12-28T06:31:49;13.90;;;12.70;;
6197;SDS011;3132;42.622;23.328;2022-12-28T06:34:15;14.43;;;13.33;;
6197;SDS011;3132;42.622;23.328;2022-12-28T06:36:41;14.10;;;13.10;;
6197;SDS011;3132;42.622;23.328;2022-12-28T06:39:10;14.87;;;13.60;;
6197;SDS011;3132;42.622;23.328;2022-12-28T06:41:37;13.90;;;12.83;;
6197;SDS011;3132;42.622;23.328;2022-12-28T06:44:10;14.10;;;13.00;;
6197;SDS011;3132;42.622;23.328;2022-12-28T06:46:37;13.23;;;12.23;;
6197;SDS011;3132;42.622;23.328;2022-12-28T06:49:02;14.27;;;12.97;;
6197;SDS011;3132;42.622;23.328;2022-12-28T06:51:29;12.53;;;11.53;;
6197;SDS011;3132;42.622;23.328;2022-12-28T06:53:56;13.77;;;12.80;;
6197;SDS011;3132;42.622;23.328;2022-12-28T06:56:23;12.03;;;10.97;;
6197;SDS011;3132;42.622;23.328;2022-12-28T06:58:51;12.03;;;11.13;;
6197;SDS011;3132;42.622;23.328;2022-12-28T07:01:18;14.23;;;13.03;;
6197;SDS011;3132;42.622;23.328;2022-12-28T07:03:47;13.07;;;12.00;;
6197;SDS011;3132;42.622;23.328;2022-12-28T07:06:14;13.73;;;12.73;;
6197;SDS011;3132;42.622;23.328;2022-12-28T07:08:41;13.70;;;12.77;;
6197;SDS011;3132;42.622;23.328;2022-12-28T07:11:10;15.07;;;13.87;;
6197;SDS011;3132;42.622;23.328;2022-12-28T07:13:38;14.20;;;12.87;;
6197;SDS011;3132;42.622;23.328;2022-12-28T07:16:04;13.27;;;12.23;;
6197;SDS011;3132;42.622;23.328;2022-12-28T07:18:31;14.90;;;13.50;;
6197;SDS011;3132;42.622;23.328;2022-12-28T07:21:01;14.13;;;13.00;;
6197;SDS011;3132;42.622;23.328;2022-12-28T07:23:32;14.87;;;13.50;;
6197;SDS011;3132;42.622;23.328;2022-12-28T07:26:02;14.33;;;13.03;;
6197;SDS011;3132;42.622;23.328;2022-12-28T07:28:29;13.30;;;12.33;;
6197;SDS011;3132;42.622;23.328;2022-12-28T07:30:54;14.50;;;13.10;;
6197;SDS011;3132;42.622;23.328;2022-12-28T07:33:20;15.50;;;14.20;;
6197;SDS011;3132;42.622;23.328;2022-12-28T07:35:45;15.37;;;13.97;;
6197;SDS011;3132;42.622;23.328;2022-12-28T07:38:11;15.40;;;14.30;;
6197;SDS011;3132;42.622;23.328;2022-12-28T07:40:36;15.27;;;13.77;;
6197;SDS011;3132;42.622;23.328;2022-12-28T07:43:01;17.53;;;14.30;;
6197;SDS011;3132;42.622;23.328;2022-12-28T07:45:27;16.53;;;14.67;;
6197;SDS011;3132;42.622;23.328;2022-12-28T07:47:52;19.27;;;17.27;;
6197;SDS011;3132;42.622;23.328;2022-12-28T07:50:17;26.87;;;18.93;;
6197;SDS011;3132;42.622;23.328;2022-12-28T07:52:43;16.17;;;14.70;;
6197;SDS011;3132;42.622;23.328;2022-12-28T07:55:08;15.03;;;13.53;;
6197;SDS011;3132;42.622;23.328;2022-12-28T07:57:34;15.00;;;13.73;;
6197;SDS011;3132;42.622;23.328;2022-12-28T07:59:59;15.17;;;13.73;;
6197;SDS011;3132;42.622;23.328;2022-12-28T08:02:24;14.30;;;13.10;;
6197;SDS011;3132;42.622;23.328;2022-12-28T08:04:50;16.93;;;14.63;;
6197;SDS011;3132;42.622;23.328;2022-12-28T08:07:15;15.13;;;13.57;;
6197;SDS011;3132;42.622;23.328;2022-12-28T08:09:40;16.30;;;14.87;;
6197;SDS011;3132;42.622;23.328;2022-12-28T08:12:06;14.00;;;12.90;;
6197;SDS011;3132;42.622;23.328;2022-12-28T08:14:31;16.70;;;15.20;;
6197;SDS011;3132;42.622;23.328;2022-12-28T08:16:57;16.77;;;15.00;;
6197;SDS011;3132;42.622;23.328;2022-12-28T08:19:22;14.77;;;13.43;;
6197;SDS011;3132;42.622;23.328;2022-12-28T08:21:47;14.37;;;13.17;;
6197;SDS011;3132;42.622;23.328;2022-12-28T08:24:16;14.23;;;13.13;;
6197;SDS011;3132;42.622;23.328;2022-12-28T08:26:43;14.97;;;13.77;;
6197;SDS011;3132;42.622;23.328;2022-12-28T08:29:11;15.60;;;14.20;;
6197;SDS011;3132;42.622;23.328;2022-12-28T08:31:40;19.87;;;17.97;;
6197;SDS011;3132;42.622;23.328;2022-12-28T08:34:07;18.90;;;17.10;;
6197;SDS011;3132;42.622;23.328;2022-12-28T08:36:35;18.37;;;16.57;;
6197;SDS011;3132;42.622;23.328;2022-12-28T08:39:00;22.77;;;19.57;;
6197;SDS011;3132;42.622;23.328;2022-12-28T08:41:27;18.13;;;15.80;;
6197;SDS011;3132;42.622;23.328;2022-12-28T08:43:53;20.87;;;18.13;;
6197;SDS011;3132;42.622;23.328;2022-12-28T08:46:23;17.80;;;16.07;;
6197;SDS011;3132;42.622;23.328;2022-12-28T08:48:50;16.90;;;15.20;;
6197;SDS011;3132;42.622;23.328;2022-12-28T08:51:20;18.50;;;16.40;;
6197;SDS011;3132;42.622;23.328;2022-12-28T08:53:48;17.73;;;15.93;;
6197;SDS011;3132;42.622;23.328;2022-12-28T08:58:51;15.03;;;13.83;;
6197;SDS011;3132;42.622;23.328;2022-12-28T09:03:51;15.40;;;13.73;;
6197;SDS011;3132;42.622;23.328;2022-12-28T09:06:22;16.17;;;14.77;;
6197;SDS011;3132;42.622;23.328;2022-12-28T09:08:50;15.80;;;14.53;;
6197;SDS011;3132;42.622;23.328;2022-12-28T09:11:17;15.63;;;14.43;;
6197;SDS011;3132;42.622;23.328;2022-12-28T09:13:43;15.67;;;14.17;;
6197;SDS011;3132;42.622;23.328;2022-12-28T09:16:10;16.93;;;14.13;;
6197;SDS011;3132;42.622;23.328;2022-12-28T09:18:38;15.07;;;13.37;;
6197;SDS011;3132;42.622;23.328;2022-12-28T09:21:05;18.97;;;13.73;;
6197;SDS011;3132;42.622;23.328;2022-12-28T09:23:30;16.03;;;14.67;;
6197;SDS011;3132;42.622;23.328;2022-12-28T09:25:56;15.40;;;14.10;;
6197;SDS011;3132;42.622;23.328;2022-12-28T09:28:27;16.90;;;15.37;;
6197;SDS011;3132;42.622;23.328;2022-12-28T09:30:53;15.73;;;14.23;;
6197;SDS011;3132;42.622;23.328;2022-12-28T09:33:18;17.57;;;15.93;;
6197;SDS011;3132;42.622;23.328;2022-12-28T09:36:02;16.93;;;15.33;;
6197;SDS011;3132;42.622;23.328;2022-12-28T09:38:29;17.50;;;15.83;;
6197;SDS011;3132;42.622;23.328;2022-12-28T09:40:56;16.83;;;15.43;;
6197;SDS011;3132;42.622;23.328;2022-12-28T09:43:22;15.87;;;14.37;;
6197;SDS011;3132;42.622;23.328;2022-12-28T09:45:49;16.63;;;14.93;;
6197;SDS011;3132;42.622;23.328;2022-12-28T09:48:18;15.87;;;14.53;;
6197;SDS011;3132;42.622;23.328;2022-12-28T09:50:47;16.50;;;14.87;;
6197;SDS011;3132;42.622;23.328;2022-12-28T09:53:29;17.80;;;16.10;;
6197;SDS011;3132;42.622;23.328;2022-12-28T09:58:33;16.33;;;14.87;;
6197;SDS011;3132;42.622;23.328;2022-12-28T10:01:02;17.30;;;15.67;;
6197;SDS011;3132;42.622;23.328;2022-12-28T10:03:37;15.70;;;14.40;;
6197;SDS011;3132;42.622;23.328;2022-12-28T10:06:09;16.77;;;15.10;;
6197;SDS011;3132;42.622;23.328;2022-12-28T10:08:47;14.97;;;13.73;;
6197;SDS011;3132;42.622;23.328;2022-12-28T10:11:19;16.27;;;14.77;;
6197;SDS011;3132;42.622;23.328;2022-12-28T10:13:53;19.57;;;14.57;;
6197;SDS011;3132;42.622;23.328;2022-12-28T10:16:20;15.77;;;14.27;;
6197;SDS011;3132;42.622;23.328;2022-12-28T10:18:47;14.03;;;12.87;;
6197;SDS011;3132;42.622;23.328;2022-12-28T10:21:14;16.17;;;14.67;;
6197;SDS011;3132;42.622;23.328;2022-12-28T10:23:42;16.93;;;15.13;;
6197;SDS011;3132;42.622;23.328;2022-12-28T10:26:11;16.57;;;14.47;;
6197;SDS011;3132;42.622;23.328;2022-12-28T10:28:43;18.67;;;15.40;;
6197;SDS011;3132;42.622;23.328;2022-12-28T10:31:13;17.77;;;16.07;;
6197;SDS011;3132;42.622;23.328;2022-12-28T10:33:41;17.47;;;15.43;;
6197;SDS011;3132;42.622;23.328;2022-12-28T10:36:14;16.87;;;15.20;;
6197;SDS011;3132;42.622;23.328;2022-12-28T10:38:41;17.80;;;15.97;;
6197;SDS011;3132;42.622;23.328;2022-12-28T10:41:13;24.17;;;18.30;;
6197;SDS011;3132;42.622;23.328;2022-12-28T10:43:41;16.63;;;15.10;;
6197;SDS011;3132;42.622;23.328;2022-12-28T10:46:19;16.87;;;15.17;;
6197;SDS011;3132;42.622;23.328;2022-12-28T10:48:50;15.67;;;14.17;;
6197;SDS011;3132;42.622;23.328;2022-12-28T10:51:20;16.53;;;15.03;;
6197;SDS011;3132;42.622;23.328;2022-12-28T10:53:53;16.87;;;15.40;;
6197;SDS011;3132;42.622;23.328;2022-12-28T11:01:37;17.27;;;15.53;;
6197;SDS011;3132;42.622;23.328;2022-12-28T11:04:15;17.73;;;16.03;;
6197;SDS011;3132;42.622;23.328;2022-12-28T11:06:55;17.20;;;15.67;;
6197;SDS011;3132;42.622;23.328;2022-12-28T11:12:14;15.93;;;14.67;;
6197;SDS011;3132;42.622;23.328;2022-12-28T11:14:41;17.07;;;15.57;;
6197;SDS011;3132;42.622;23.328;2022-12-28T11:17:14;16.63;;;14.90;;
6197;SDS011;3132;42.622;23.328;2022-12-28T11:19:50;16.07;;;14.60;;
6197;SDS011;3132;42.622;23.328;2022-12-28T11:22:21;17.60;;;15.87;;
6197;SDS011;3132;42.622;23.328;2022-12-28T11:24:49;16.20;;;14.77;;
6197;SDS011;3132;42.622;23.328;2022-12-28T11:27:16;17.00;;;15.33;;
6197;SDS011;3132;42.622;23.328;2022-12-28T11:29:44;17.70;;;16.10;;
6197;SDS011;3132;42.622;23.328;2022-12-28T11:32:14;16.03;;;14.43;;
6197;SDS011;3132;42.622;23.328;2022-12-28T11:34:46;15.90;;;14.53;;
6197;SDS011;3132;42.622;23.328;2022-12-28T11:37:13;17.17;;;15.47;;
6197;SDS011;3132;42.622;23.328;2022-12-28T11:39:42;16.83;;;15.07;;
6197;SDS011;3132;42.622;23.328;2022-12-28T11:42:10;16.33;;;14.80;;
6197;SDS011;3132;42.622;23.328;2022-12-28T11:44:56;15.53;;;14.20;;
6197;SDS011;3132;42.622;23.328;2022-12-28T11:47:23;17.67;;;15.90;;
6197;SDS011;3132;42.622;23.328;2022-12-28T11:49:56;18.30;;;15.53;;
6197;SDS011;3132;42.622;23.328;2022-12-28T11:53:03;18.00;;;15.83;;
6197;SDS011;3132;42.622;23.328;2022-12-28T11:55:55;16.20;;;14.77;;
6197;SDS011;3132;42.622;23.328;2022-12-28T12:00:54;22.43;;;14.63;;
6197;SDS011;3132;42.622;23.328;2022-12-28T12:03:42;16.27;;;14.50;;
6197;SDS011;3132;42.622;23.328;2022-12-28T12:09:40;16.90;;;15.13;;
6197;SDS011;3132;42.622;23.328;2022-12-28T12:14:25;18.53;;;16.50;;
6197;SDS011;3132;42.622;23.328;2022-12-28T12:16:59;17.47;;;15.87;;
6197;SDS011;3132;42.622;23.328;2022-12-28T12:19:30;18.10;;;16.13;;
6197;SDS011;3132;42.622;23.328;2022-12-28T12:22:19;17.33;;;15.53;;
6197;SDS011;3132;42.622;23.328;2022-12-28T12:25:31;22.20;;;18.23;;
6197;SDS011;3132;42.622;23.328;2022-12-28T12:27:44;19.57;;;17.63;;
6197;SDS011;3132;42.622;23.328;2022-12-28T12:30:17;23.90;;;16.00;;
6197;SDS011;3132;42.622;23.328;2022-12-28T12:32:54;21.50;;;17.60;;
6197;SDS011;3132;42.622;23.328;2022-12-28T12:35:23;19.03;;;17.07;;
6197;SDS011;3132;42.622;23.328;2022-12-28T12:43:27;21.63;;;19.07;;
6197;SDS011;3132;42.622;23.328;2022-12-28T12:55:02;20.27;;;17.93;;
6197;SDS011;3132;42.622;23.328;2022-12-28T13:00:22;26.87;;;20.33;;
6197;SDS011;3132;42.622;23.328;2022-12-28T13:05:48;23.37;;;18.87;;
6197;SDS011;3132;42.622;23.328;2022-12-28T13:08:21;25.40;;;19.90;;
6197;SDS011;3132;42.622;23.328;2022-12-28T13:10:50;24.03;;;19.27;;
6197;SDS011;3132;42.622;23.328;2022-12-28T13:13:26;24.43;;;20.40;;
6197;SDS011;3132;42.622;23.328;2022-12-28T13:15:58;21.27;;;18.60;;
6197;SDS011;3132;42.622;23.328;2022-12-28T13:18:27;21.70;;;18.40;;
6197;SDS011;3132;42.622;23.328;2022-12-28T13:20:57;21.60;;;18.80;;
6197;SDS011;3132;42.622;23.328;2022-12-28T13:23:25;24.50;;;20.63;;
6197;SDS011;3132;42.622;23.328;2022-12-28T13:25:53;25.47;;;19.80;;
6197;SDS011;3132;42.622;23.328;2022-12-28T13:28:30;28.20;;;21.30;;
6197;SDS011;3132;42.622;23.328;2022-12-28T13:30:57;24.67;;;20.37;;
6197;SDS011;3132;42.622;23.328;2022-12-28T13:33:37;20.77;;;18.63;;
6197;SDS011;3132;42.622;23.328;2022-12-28T13:36:03;22.93;;;20.30;;
6197;SDS011;3132;42.622;23.328;2022-12-28T13:38:35;28.40;;;20.87;;
6197;SDS011;3132;42.622;23.328;2022-12-28T13:41:01;24.27;;;20.57;;
6197;SDS011;3132;42.622;23.328;2022-12-28T13:46:12;23.80;;;20.43;;
6197;SDS011;3132;42.622;23.328;2022-12-28T13:48:42;25.17;;;20.30;;
6197;SDS011;3132;42.622;23.328;2022-12-28T13:51:13;20.53;;;18.37;;
6197;SDS011;3132;42.622;23.328;2022-12-28T13:53:43;21.70;;;19.43;;
6197;SDS011;3132;42.622;23.328;2022-12-28T13:56:12;23.50;;;18.83;;
6197;SDS011;3132;42.622;23.328;2022-12-28T13:58:42;23.50;;;19.30;;
6197;SDS011;3132;42.622;23.328;2022-12-28T14:01:13;23.53;;;19.97;;
6197;SDS011;3132;42.622;23.328;2022-12-28T14:03:43;25.17;;;19.33;;
6197;SDS011;3132;42.622;23.328;2022-12-28T14:06:09;23.53;;;21.03;;
6197;SDS011;3132;42.622;23.328;2022-12-28T14:08:39;24.03;;;20.20;;
6197;SDS011;3132;42.622;23.328;2022-12-28T14:11:05;23.43;;;18.53;;
6197;SDS011;3132;42.622;23.328;2022-12-28T14:13:32;21.57;;;19.20;;
6197;SDS011;3132;42.622;23.328;2022-12-28T14:15:59;25.10;;;18.07;;
6197;SDS011;3132;42.622;23.328;2022-12-28T14:18:27;25.37;;;20.87;;
6197;SDS011;3132;42.622;23.328;2022-12-28T14:20:55;22.60;;;19.97;;
6197;SDS011;3132;42.622;23.328;2022-12-28T14:25:52;24.87;;;20.47;;
6197;SDS011;3132;42.622;23.328;2022-12-28T14:28:21;30.13;;;21.97;;
6197;SDS011;3132;42.622;23.328;2022-12-28T14:30:55;31.87;;;21.37;;
6197;SDS011;3132;42.622;23.328;2022-12-28T14:33:22;30.43;;;22.43;;
6197;SDS011;3132;42.622;23.328;2022-12-28T14:35:54;28.77;;;21.57;;
6197;SDS011;3132;42.622;23.328;2022-12-28T14:38:24;28.00;;;21.33;;
6197;SDS011;3132;42.622;23.328;2022-12-28T14:40:57;28.27;;;21.77;;
6197;SDS011;3132;42.622;23.328;2022-12-28T14:43:25;25.20;;;20.23;;
6197;SDS011;3132;42.622;23.328;2022-12-28T14:45:53;25.77;;;21.03;;
6197;SDS011;3132;42.622;23.328;2022-12-28T14:50:57;28.73;;;22.77;;
6197;SDS011;3132;42.622;23.328;2022-12-28T14:53:24;24.77;;;20.77;;
6197;SDS011;3132;42.622;23.328;2022-12-28T14:56:00;29.23;;;21.57;;
6197;SDS011;3132;42.622;23.328;2022-12-28T14:58:36;34.23;;;21.23;;
6197;SDS011;3132;42.622;23.328;2022-12-28T15:01:12;30.63;;;20.47;;
6197;SDS011;3132;42.622;23.328;2022-12-28T15:06:16;27.93;;;21.00;;
6197;SDS011;3132;42.622;23.328;2022-12-28T15:08:46;28.37;;;20.80;;
6197;SDS011;3132;42.622;23.328;2022-12-28T15:11:12;23.70;;;21.20;;
6197;SDS011;3132;42.622;23.328;2022-12-28T15:13:38;34.60;;;20.37;;
6197;SDS011;3132;42.622;23.328;2022-12-28T15:16:03;24.50;;;19.60;;
6197;SDS011;3132;42.622;23.328;2022-12-28T15:18:29;23.27;;;18.07;;
6197;SDS011;3132;42.622;23.328;2022-12-28T15:20:55;26.57;;;21.07;;
6197;SDS011;3132;42.622;23.328;2022-12-28T15:23:21;27.20;;;20.67;;
6197;SDS011;3132;42.622;23.328;2022-12-28T15:25:47;27.37;;;19.60;;
6197;SDS011;3132;42.622;23.328;2022-12-28T15:28:13;29.00;;;20.97;;
6197;SDS011;3132;42.622;23.328;2022-12-28T15:30:39;25.27;;;20.90;;
6197;SDS011;3132;42.622;23.328;2022-12-28T15:33:06;30.13;;;22.07;;
6197;SDS011;3132;42.622;23.328;2022-12-28T15:35:31;27.97;;;21.80;;
6197;SDS011;3132;42.622;23.328;2022-12-28T15:37:58;36.57;;;22.67;;
6197;SDS011;3132;42.622;23.328;2022-12-28T15:40:23;36.10;;;23.10;;
6197;SDS011;3132;42.622;23.328;2022-12-28T15:42:49;32.30;;;23.03;;
6197;SDS011;3132;42.622;23.328;2022-12-28T15:45:14;46.10;;;27.27;;
6197;SDS011;3132;42.622;23.328;2022-12-28T15:47:40;51.37;;;32.67;;
6197;SDS011;3132;42.622;23.328;2022-12-28T15:50:06;42.13;;;27.60;;
6197;SDS011;3132;42.622;23.328;2022-12-28T15:52:31;50.87;;;30.63;;
6197;SDS011;3132;42.622;23.328;2022-12-28T15:54:57;50.53;;;30.33;;
6197;SDS011;3132;42.622;23.328;2022-12-28T15:57:23;47.27;;;30.23;;
6197;SDS011;3132;42.622;23.328;2022-12-28T15:59:49;46.00;;;28.77;;
6197;SDS011;3132;42.622;23.328;2022-12-28T16:02:14;50.60;;;29.70;;
6197;SDS011;3132;42.622;23.328;2022-12-28T16:04:40;47.67;;;28.60;;
6197;SDS011;3132;42.622;23.328;2022-12-28T16:07:06;46.43;;;28.40;;
6197;SDS011;3132;42.622;23.328;2022-12-28T16:09:32;43.33;;;27.87;;
6197;SDS011;3132;42.622;23.328;2022-12-28T16:11:57;40.33;;;27.07;;